createdAt,value
2018-07-05T00:00:19.710Z,0
2018-07-05T00:01:00.275Z,0
2018-07-05T00:01:40.880Z,0
2018-07-05T00:02:21.460Z,0
2018-07-05T00:03:02.031Z,0
2018-07-05T00:03:42.603Z,0
2018-07-05T00:04:23.155Z,0
2018-07-05T00:05:03.719Z,0
2018-07-05T00:05:44.282Z,0
2018-07-05T00:06:24.849Z,0
2018-07-05T00:07:05.418Z,0
2018-07-05T00:07:45.974Z,0
2018-07-05T00:08:26.558Z,0
2018-07-05T00:09:07.125Z,0
2018-07-05T00:09:47.687Z,0
2018-07-05T00:10:28.273Z,0
2018-07-05T00:11:08.836Z,0
2018-07-05T00:11:49.405Z,0
2018-07-05T00:12:30.071Z,0
2018-07-05T00:13:10.886Z,0
2018-07-05T00:13:52.123Z,0
2018-07-05T00:14:33.221Z,0
2018-07-05T00:15:13.822Z,0
2018-07-05T00:15:54.382Z,0
2018-07-05T00:16:34.955Z,0
2018-07-05T00:17:15.539Z,0
2018-07-05T00:17:56.086Z,0
2018-07-05T00:18:36.648Z,0
2018-07-05T00:19:17.227Z,0
2018-07-05T00:19:57.794Z,0
2018-07-05T00:20:38.360Z,0
2018-07-05T00:21:18.969Z,0
2018-07-05T00:21:59.507Z,0
2018-07-05T00:22:40.067Z,0
2018-07-05T00:23:20.657Z,0
2018-07-05T00:24:01.246Z,0
2018-07-05T00:24:41.812Z,0
2018-07-05T00:25:22.374Z,0
2018-07-05T00:26:02.929Z,0
2018-07-05T00:26:43.479Z,0
2018-07-05T00:27:24.031Z,0
2018-07-05T00:28:04.601Z,0
2018-07-05T00:28:45.161Z,0
2018-07-05T00:29:25.740Z,0
2018-07-05T00:30:06.316Z,0
2018-07-05T00:30:46.893Z,0
2018-07-05T00:31:27.472Z,0
2018-07-05T00:32:08.054Z,0
2018-07-05T00:32:48.612Z,0
2018-07-05T00:33:29.193Z,0
2018-07-05T00:34:09.748Z,0
2018-07-05T00:34:50.326Z,0
2018-07-05T00:35:30.918Z,0
2018-07-05T00:36:11.487Z,0
2018-07-05T00:36:52.051Z,0
2018-07-05T00:37:32.624Z,0
2018-07-05T00:38:13.182Z,0
2018-07-05T00:38:53.743Z,0
2018-07-05T00:39:34.333Z,0
2018-07-05T00:40:14.893Z,0
2018-07-05T00:40:55.463Z,0
2018-07-05T00:41:36.045Z,0
2018-07-05T00:42:16.589Z,0
2018-07-05T00:42:57.154Z,0
2018-07-05T00:43:37.718Z,0
2018-07-05T00:44:18.290Z,0
2018-07-05T00:44:58.963Z,0
2018-07-05T00:45:39.518Z,0
2018-07-05T00:46:20.094Z,0
2018-07-05T00:47:00.980Z,0
2018-07-05T00:47:41.775Z,0
2018-07-05T00:48:22.410Z,0
2018-07-05T00:49:03.117Z,0
2018-07-05T00:49:43.860Z,0
2018-07-05T00:50:24.523Z,0
2018-07-05T00:51:05.184Z,0
2018-07-05T00:51:45.916Z,0
2018-07-05T00:52:26.688Z,0
2018-07-05T00:53:07.310Z,0
2018-07-05T00:53:48.088Z,0
2018-07-05T00:54:28.808Z,0
2018-07-05T00:55:09.479Z,0
2018-07-05T00:55:50.205Z,0
2018-07-05T00:56:30.835Z,0
2018-07-05T00:57:11.647Z,0
2018-07-05T00:57:52.518Z,0
2018-07-05T00:58:33.329Z,0
2018-07-05T00:59:13.994Z,0
2018-07-05T00:59:54.690Z,0
2018-07-05T01:00:35.442Z,0
2018-07-05T01:01:16.145Z,0
2018-07-05T01:01:56.827Z,0
2018-07-05T01:02:37.584Z,0
2018-07-05T01:03:18.209Z,0
2018-07-05T01:03:58.996Z,0
2018-07-05T01:04:39.656Z,0
2018-07-05T01:05:20.501Z,0
2018-07-05T01:06:01.193Z,0
2018-07-05T01:06:41.871Z,0
2018-07-05T01:07:22.583Z,0
2018-07-05T01:08:03.209Z,0
2018-07-05T01:08:43.967Z,0
2018-07-05T01:09:24.662Z,0
2018-07-05T01:10:05.316Z,0
2018-07-05T01:10:46.120Z,0
2018-07-05T01:11:26.833Z,0
2018-07-05T01:12:07.459Z,0
2018-07-05T01:12:48.006Z,0
2018-07-05T01:13:28.568Z,0
2018-07-05T01:14:09.123Z,0
2018-07-05T01:14:49.818Z,0
2018-07-05T01:15:30.424Z,0
2018-07-05T01:16:10.965Z,0
2018-07-05T01:16:51.736Z,0
2018-07-05T01:17:32.526Z,0
2018-07-05T01:18:13.241Z,0
2018-07-05T01:18:54.150Z,0
2018-07-05T01:19:34.780Z,0
2018-07-05T01:20:15.485Z,0
2018-07-05T01:20:56.117Z,0
2018-07-05T01:21:36.729Z,0
2018-07-05T01:22:17.405Z,0
2018-07-05T01:22:58.046Z,0
2018-07-05T01:23:38.879Z,0
2018-07-05T01:24:19.445Z,0
2018-07-05T01:25:00.076Z,0
2018-07-05T01:25:40.772Z,0
2018-07-05T01:26:21.421Z,0
2018-07-05T01:27:02.034Z,0
2018-07-05T01:27:42.745Z,0
2018-07-05T01:28:23.334Z,0
2018-07-05T01:29:03.955Z,0
2018-07-05T01:29:44.539Z,0
2018-07-05T01:30:25.249Z,0
2018-07-05T01:31:05.883Z,0
2018-07-05T01:31:46.538Z,0
2018-07-05T01:32:27.101Z,0
2018-07-05T01:33:07.662Z,0
2018-07-05T01:33:48.209Z,0
2018-07-05T01:34:28.783Z,0
2018-07-05T01:35:09.355Z,0
2018-07-05T01:35:49.947Z,0
2018-07-05T01:36:30.508Z,0
2018-07-05T01:37:11.080Z,0
2018-07-05T01:37:51.661Z,0
2018-07-05T01:38:32.224Z,0
2018-07-05T01:39:12.780Z,0
2018-07-05T01:39:53.354Z,0
2018-07-05T01:40:33.921Z,0
2018-07-05T01:41:14.481Z,0
2018-07-05T01:41:55.051Z,0
2018-07-05T01:42:35.620Z,0
2018-07-05T01:43:16.184Z,0
2018-07-05T01:43:56.737Z,0
2018-07-05T01:44:37.314Z,0
2018-07-05T01:45:17.876Z,0
2018-07-05T01:45:58.451Z,0
2018-07-05T01:46:39.004Z,0
2018-07-05T01:47:19.576Z,0
2018-07-05T01:48:00.150Z,0
2018-07-05T01:48:40.787Z,0
2018-07-05T01:49:21.482Z,0
2018-07-05T01:50:02.104Z,0
2018-07-05T01:50:42.675Z,0
2018-07-05T01:51:23.249Z,0
2018-07-05T01:52:03.815Z,0
2018-07-05T01:52:44.386Z,0
2018-07-05T01:53:24.958Z,0
2018-07-05T01:54:05.526Z,0
2018-07-05T01:54:46.079Z,0
2018-07-05T01:55:26.647Z,0
2018-07-05T01:56:07.213Z,0
2018-07-05T01:56:47.821Z,0
2018-07-05T01:57:28.391Z,0
2018-07-05T01:58:08.958Z,0
2018-07-05T01:58:49.523Z,0
2018-07-05T01:59:30.090Z,0
2018-07-05T02:00:10.653Z,0
2018-07-05T02:00:51.226Z,0
2018-07-05T02:01:31.800Z,0
2018-07-05T02:02:12.360Z,0
2018-07-05T02:02:52.927Z,0
2018-07-05T02:03:33.500Z,0
2018-07-05T02:04:14.080Z,0
2018-07-05T02:04:54.646Z,0
2018-07-05T02:05:35.213Z,0
2018-07-05T02:06:15.785Z,0
2018-07-05T02:06:56.333Z,0
2018-07-05T02:07:36.896Z,0
2018-07-05T02:08:17.453Z,4
2018-07-05T02:08:58.031Z,4
2018-07-05T02:09:38.593Z,4
2018-07-05T02:10:19.156Z,4
2018-07-05T02:10:59.733Z,0
2018-07-05T02:11:40.272Z,0
2018-07-05T02:12:20.833Z,0
2018-07-05T02:13:01.407Z,4
2018-07-05T02:13:41.996Z,4
2018-07-05T02:14:22.615Z,4
2018-07-05T02:15:03.136Z,0
2018-07-05T02:15:43.700Z,0
2018-07-05T02:16:24.273Z,4
2018-07-05T02:17:04.859Z,4
2018-07-05T02:17:45.430Z,4
2018-07-05T02:18:25.994Z,4
2018-07-05T02:19:06.570Z,4
2018-07-05T02:19:47.136Z,8
2018-07-05T02:20:27.709Z,4
2018-07-05T02:21:08.260Z,4
2018-07-05T02:21:48.829Z,8
2018-07-05T02:22:29.387Z,4
2018-07-05T02:23:09.942Z,8
2018-07-05T02:23:50.513Z,8
2018-07-05T02:24:31.075Z,8
2018-07-05T02:25:11.630Z,8
2018-07-05T02:25:52.213Z,12
2018-07-05T02:26:32.791Z,12
2018-07-05T02:27:13.357Z,12
2018-07-05T02:27:53.917Z,16
2018-07-05T02:28:34.493Z,12
2018-07-05T02:29:15.065Z,12
2018-07-05T02:29:55.654Z,16
2018-07-05T02:30:36.212Z,16
2018-07-05T02:31:16.780Z,20
2018-07-05T02:31:57.333Z,20
2018-07-05T02:32:37.898Z,20
2018-07-05T02:33:18.464Z,20
2018-07-05T02:33:59.035Z,24
2018-07-05T02:34:39.604Z,24
2018-07-05T02:35:20.189Z,28
2018-07-05T02:36:00.759Z,28
2018-07-05T02:36:41.333Z,32
2018-07-05T02:37:21.903Z,28
2018-07-05T02:38:02.460Z,32
2018-07-05T02:38:43.024Z,36
2018-07-05T02:39:23.584Z,40
2018-07-05T02:40:04.148Z,40
2018-07-05T02:40:44.716Z,44
2018-07-05T02:41:25.286Z,44
2018-07-05T02:42:05.853Z,52
2018-07-05T02:42:46.443Z,52
2018-07-05T02:43:27.010Z,52
2018-07-05T02:44:07.574Z,56
2018-07-05T02:44:48.142Z,60
2018-07-05T02:45:28.705Z,64
2018-07-05T02:46:09.276Z,68
2018-07-05T02:46:49.837Z,72
2018-07-05T02:47:30.389Z,76
2018-07-05T02:48:10.952Z,80
2018-07-05T02:48:51.519Z,84
2018-07-05T02:49:32.111Z,88
2018-07-05T02:50:12.670Z,92
2018-07-05T02:50:53.242Z,96
2018-07-05T02:51:33.815Z,100
2018-07-05T02:52:14.388Z,104
2018-07-05T02:52:54.970Z,112
2018-07-05T02:53:35.540Z,116
2018-07-05T02:54:16.111Z,120
2018-07-05T02:54:56.679Z,124
2018-07-05T02:55:37.259Z,132
2018-07-05T02:56:17.832Z,136
2018-07-05T02:56:58.397Z,144
2018-07-05T02:57:38.957Z,148
2018-07-05T02:58:19.524Z,156
2018-07-05T02:59:00.101Z,160
2018-07-05T02:59:40.673Z,168
2018-07-05T03:00:21.249Z,172
2018-07-05T03:01:01.846Z,184
2018-07-05T03:01:42.411Z,192
2018-07-05T03:02:22.982Z,196
2018-07-05T03:03:03.560Z,204
2018-07-05T03:03:44.110Z,212
2018-07-05T03:04:24.663Z,220
2018-07-05T03:05:05.237Z,228
2018-07-05T03:05:45.786Z,236
2018-07-05T03:06:26.357Z,244
2018-07-05T03:07:06.922Z,252
2018-07-05T03:07:47.496Z,264
2018-07-05T03:08:28.065Z,276
2018-07-05T03:09:08.626Z,288
2018-07-05T03:09:49.198Z,296
2018-07-05T03:10:29.781Z,308
2018-07-05T03:11:10.354Z,316
2018-07-05T03:11:50.902Z,328
2018-07-05T03:12:31.479Z,340
2018-07-05T03:13:12.054Z,348
2018-07-05T03:13:52.633Z,364
2018-07-05T03:14:33.205Z,372
2018-07-05T03:15:13.780Z,384
2018-07-05T03:15:54.358Z,400
2018-07-05T03:16:34.926Z,416
2018-07-05T03:17:15.503Z,432
2018-07-05T03:17:56.072Z,444
2018-07-05T03:18:36.633Z,456
2018-07-05T03:19:17.203Z,472
2018-07-05T03:19:57.761Z,488
2018-07-05T03:20:38.346Z,504
2018-07-05T03:21:18.910Z,520
2018-07-05T03:21:59.479Z,536
2018-07-05T03:22:40.042Z,552
2018-07-05T03:23:20.614Z,572
2018-07-05T03:24:01.175Z,592
2018-07-05T03:24:41.729Z,612
2018-07-05T03:25:22.311Z,628
2018-07-05T03:26:02.872Z,644
2018-07-05T03:26:43.431Z,664
2018-07-05T03:27:24.005Z,680
2018-07-05T03:28:04.567Z,704
2018-07-05T03:28:45.140Z,728
2018-07-05T03:29:25.732Z,756
2018-07-05T03:30:06.301Z,788
2018-07-05T03:30:46.891Z,816
2018-07-05T03:31:27.450Z,856
2018-07-05T03:32:08.010Z,888
2018-07-05T03:32:48.576Z,924
2018-07-05T03:33:29.148Z,960
2018-07-05T03:34:09.729Z,1000
2018-07-05T03:34:50.287Z,1040
2018-07-05T03:35:30.861Z,1076
2018-07-05T03:36:11.433Z,1108
2018-07-05T03:36:52.001Z,1144
2018-07-05T03:37:32.574Z,1184
2018-07-05T03:38:13.150Z,1228
2018-07-05T03:38:53.720Z,1280
2018-07-05T03:39:34.287Z,1324
2018-07-05T03:40:14.861Z,1364
2018-07-05T03:40:55.434Z,1396
2018-07-05T03:41:36.005Z,1436
2018-07-05T03:42:16.577Z,1472
2018-07-05T03:42:57.154Z,1508
2018-07-05T03:43:37.734Z,1552
2018-07-05T03:44:18.307Z,1592
2018-07-05T03:44:58.889Z,1636
2018-07-05T03:45:39.467Z,1676
2018-07-05T03:46:20.042Z,1724
2018-07-05T03:47:00.608Z,1776
2018-07-05T03:47:41.185Z,1828
2018-07-05T03:48:21.765Z,1868
2018-07-05T03:49:02.332Z,1912
2018-07-05T03:49:42.897Z,1956
2018-07-05T03:50:23.471Z,2004
2018-07-05T03:51:04.039Z,2048
2018-07-05T03:51:44.619Z,2084
2018-07-05T03:52:25.181Z,2116
2018-07-05T03:53:05.754Z,2140
2018-07-05T03:53:46.350Z,2152
2018-07-05T03:54:26.898Z,2144
2018-07-05T03:55:07.466Z,2128
2018-07-05T03:55:48.037Z,2104
2018-07-05T03:56:28.616Z,2088
2018-07-05T03:57:09.194Z,2080
2018-07-05T03:57:49.766Z,2080
2018-07-05T03:58:30.324Z,2072
2018-07-05T03:59:10.899Z,2076
2018-07-05T03:59:51.466Z,2068
2018-07-05T04:00:32.025Z,2064
2018-07-05T04:01:12.618Z,2056
2018-07-05T04:01:53.159Z,2048
2018-07-05T04:02:33.767Z,2040
2018-07-05T04:03:14.328Z,2036
2018-07-05T04:03:54.869Z,2020
2018-07-05T04:04:35.446Z,1992
2018-07-05T04:05:16.018Z,1948
2018-07-05T04:05:56.589Z,1904
2018-07-05T04:06:37.187Z,1868
2018-07-05T04:07:17.762Z,1852
2018-07-05T04:07:58.333Z,1840
2018-07-05T04:08:38.893Z,1828
2018-07-05T04:09:19.467Z,1816
2018-07-05T04:10:00.043Z,1812
2018-07-05T04:10:40.594Z,1804
2018-07-05T04:11:21.162Z,1788
2018-07-05T04:12:01.730Z,1764
2018-07-05T04:12:42.307Z,1744
2018-07-05T04:13:22.876Z,1720
2018-07-05T04:14:03.440Z,1700
2018-07-05T04:14:44.017Z,1684
2018-07-05T04:15:24.578Z,1672
2018-07-05T04:16:05.143Z,1664
2018-07-05T04:16:45.717Z,1656
2018-07-05T04:17:26.283Z,1636
2018-07-05T04:18:06.848Z,1604
2018-07-05T04:18:47.429Z,1560
2018-07-05T04:19:28.007Z,1500
2018-07-05T04:20:08.578Z,1464
2018-07-05T04:20:49.136Z,1420
2018-07-05T04:21:29.701Z,1368
2018-07-05T04:22:10.268Z,1320
2018-07-05T04:22:50.857Z,1272
2018-07-05T04:23:31.421Z,1228
2018-07-05T04:24:11.985Z,1192
2018-07-05T04:24:52.557Z,1152
2018-07-05T04:25:33.131Z,1120
2018-07-05T04:26:13.696Z,1100
2018-07-05T04:26:54.265Z,1080
2018-07-05T04:27:34.858Z,1068
2018-07-05T04:28:15.416Z,1064
2018-07-05T04:28:55.977Z,1056
2018-07-05T04:29:36.543Z,1056
2018-07-05T04:30:17.084Z,1052
2018-07-05T04:30:57.650Z,1064
2018-07-05T04:31:38.247Z,1072
2018-07-05T04:32:18.796Z,1088
2018-07-05T04:32:59.344Z,1104
2018-07-05T04:33:39.895Z,1128
2018-07-05T04:34:20.450Z,1156
2018-07-05T04:35:01.030Z,1184
2018-07-05T04:35:41.603Z,1212
2018-07-05T04:36:22.162Z,1248
2018-07-05T04:37:02.735Z,1288
2018-07-05T04:37:43.281Z,1328
2018-07-05T04:38:23.851Z,1384
2018-07-05T04:39:04.417Z,1452
2018-07-05T04:39:44.960Z,1540
2018-07-05T04:40:25.513Z,1636
2018-07-05T04:41:06.060Z,1736
2018-07-05T04:41:46.673Z,1848
2018-07-05T04:42:27.242Z,1964
2018-07-05T04:43:07.816Z,2076
2018-07-05T04:43:48.381Z,2188
2018-07-05T04:44:28.940Z,2292
2018-07-05T04:45:09.507Z,2400
2018-07-05T04:45:50.086Z,2496
2018-07-05T04:46:30.647Z,2584
2018-07-05T04:47:11.214Z,2668
2018-07-05T04:47:51.809Z,2756
2018-07-05T04:48:32.317Z,2840
2018-07-05T04:49:12.872Z,2924
2018-07-05T04:49:53.418Z,3004
2018-07-05T04:50:33.981Z,3084
2018-07-05T04:51:14.558Z,3164
2018-07-05T04:51:55.137Z,3256
2018-07-05T04:52:35.690Z,3356
2018-07-05T04:53:16.266Z,3468
2018-07-05T04:53:56.848Z,3592
2018-07-05T04:54:37.419Z,3744
2018-07-05T04:55:17.984Z,3892
2018-07-05T04:55:58.560Z,4008
2018-07-05T04:56:39.129Z,4076
2018-07-05T04:57:19.680Z,4124
2018-07-05T04:58:00.238Z,4156
2018-07-05T04:58:40.802Z,4188
2018-07-05T04:59:21.392Z,4228
2018-07-05T05:00:01.972Z,4264
2018-07-05T05:00:42.542Z,4340
2018-07-05T05:01:23.115Z,4484
2018-07-05T05:02:03.684Z,4704
2018-07-05T05:02:44.272Z,4948
2018-07-05T05:03:24.875Z,5228
2018-07-05T05:04:05.444Z,5492
2018-07-05T05:04:46.009Z,5624
2018-07-05T05:05:26.608Z,5684
2018-07-05T05:06:07.169Z,5688
2018-07-05T05:06:47.742Z,5644
2018-07-05T05:07:28.293Z,5620
2018-07-05T05:08:08.864Z,5624
2018-07-05T05:08:49.465Z,5660
2018-07-05T05:09:29.997Z,5740
2018-07-05T05:10:10.564Z,5848
2018-07-05T05:10:51.129Z,5948
2018-07-05T05:11:31.687Z,6016
2018-07-05T05:12:12.253Z,6044
2018-07-05T05:12:52.820Z,6052
2018-07-05T05:13:33.375Z,6084
2018-07-05T05:14:13.944Z,6108
2018-07-05T05:14:54.562Z,6140
2018-07-05T05:15:35.060Z,6188
2018-07-05T05:16:15.637Z,6236
2018-07-05T05:16:56.219Z,6312
2018-07-05T05:17:36.787Z,6352
2018-07-05T05:18:17.360Z,6420
2018-07-05T05:18:57.950Z,6472
2018-07-05T05:19:38.455Z,6524
2018-07-05T05:20:19.019Z,6616
2018-07-05T05:20:59.613Z,6716
2018-07-05T05:21:40.269Z,6836
2018-07-05T05:22:20.726Z,6968
2018-07-05T05:23:01.301Z,7132
2018-07-05T05:23:41.870Z,7360
2018-07-05T05:24:22.432Z,7660
2018-07-05T05:25:02.991Z,8968
2018-07-05T05:25:43.562Z,13768
2018-07-05T05:26:24.107Z,21536
2018-07-05T05:27:04.680Z,29344
2018-07-05T05:27:45.257Z,33696
2018-07-05T05:28:25.830Z,34880
2018-07-05T05:29:06.385Z,36256
2018-07-05T05:29:46.951Z,37376
2018-07-05T05:30:27.540Z,37856
2018-07-05T05:31:08.095Z,37792
2018-07-05T05:31:48.802Z,37952
2018-07-05T05:32:29.553Z,37856
2018-07-05T05:33:10.181Z,38336
2018-07-05T05:33:51.005Z,38272
2018-07-05T05:34:31.857Z,38592
2018-07-05T05:35:13.008Z,38816
2018-07-05T05:35:53.572Z,39744
2018-07-05T05:36:34.148Z,40000
2018-07-05T05:37:14.722Z,39328
2018-07-05T05:37:55.292Z,39456
2018-07-05T05:38:35.869Z,41792
2018-07-05T05:39:16.466Z,43360
2018-07-05T05:39:57.026Z,45216
2018-07-05T05:40:37.589Z,45664
2018-07-05T05:41:18.157Z,46080
2018-07-05T05:41:58.719Z,45728
2018-07-05T05:42:39.293Z,45344
2018-07-05T05:43:19.872Z,45440
2018-07-05T05:44:00.477Z,46400
2018-07-05T05:44:41.170Z,46656
2018-07-05T05:45:21.899Z,46720
2018-07-05T05:46:02.462Z,45760
2018-07-05T05:46:43.044Z,44224
2018-07-05T05:47:23.652Z,40896
2018-07-05T05:48:04.305Z,43904
2018-07-05T05:48:44.818Z,45280
2018-07-05T05:49:25.472Z,46752
2018-07-05T05:50:06.070Z,48384
2018-07-05T05:50:46.632Z,48640
2018-07-05T05:51:27.211Z,48704
2018-07-05T05:52:07.823Z,48736
2018-07-05T05:52:48.398Z,48448
2018-07-05T05:53:28.977Z,48928
2018-07-05T05:54:09.557Z,49536
2018-07-05T05:54:50.118Z,49184
2018-07-05T05:55:30.688Z,48384
2018-07-05T05:56:11.270Z,48640
2018-07-05T05:56:51.856Z,48832
2018-07-05T05:57:32.434Z,49472
2018-07-05T05:58:13.033Z,50528
2018-07-05T05:58:53.588Z,51040
2018-07-05T05:59:34.164Z,51648
2018-07-05T06:00:14.735Z,51392
2018-07-05T06:00:55.345Z,51296
2018-07-05T06:01:35.904Z,51808
2018-07-05T06:02:16.479Z,53440
2018-07-05T06:02:57.059Z,53984
2018-07-05T06:03:37.673Z,53920
2018-07-05T06:04:18.243Z,53184
2018-07-05T06:04:58.801Z,52704
2018-07-05T06:05:39.389Z,52096
2018-07-05T06:06:19.961Z,52032
2018-07-05T06:07:00.572Z,52192
2018-07-05T06:07:41.111Z,53728
2018-07-05T06:08:21.709Z,55200
2018-07-05T06:09:02.307Z,56704
2018-07-05T06:09:42.874Z,57728
2018-07-05T06:10:23.451Z,57568
2018-07-05T06:11:04.032Z,57856
2018-07-05T06:11:44.605Z,57856
2018-07-05T06:12:25.240Z,58496
2018-07-05T06:13:05.806Z,59712
2018-07-05T06:13:46.369Z,59648
2018-07-05T06:14:26.950Z,58144
2018-07-05T06:15:07.525Z,57344
2018-07-05T06:15:48.102Z,57440
2018-07-05T06:16:28.686Z,57792
2018-07-05T06:17:09.253Z,58624
2018-07-05T06:17:49.830Z,58336
2018-07-05T06:18:30.436Z,58496
2018-07-05T06:19:10.997Z,58080
2018-07-05T06:19:51.559Z,57120
2018-07-05T06:20:32.163Z,58080
2018-07-05T06:21:12.723Z,53504
2018-07-05T06:21:53.320Z,60512
2018-07-05T06:22:33.887Z,60640
2018-07-05T06:23:14.444Z,60544
2018-07-05T06:23:55.044Z,58976
2018-07-05T06:24:35.645Z,55552
2018-07-05T06:25:16.227Z,52896
2018-07-05T06:25:56.813Z,51104
2018-07-05T06:26:37.385Z,32384
2018-07-05T06:27:17.956Z,52864
2018-07-05T06:27:58.525Z,56896
2018-07-05T06:28:39.106Z,56576
2018-07-05T06:29:19.721Z,56320
2018-07-05T06:30:00.317Z,56544
2018-07-05T06:30:40.882Z,56608
2018-07-05T06:31:21.495Z,56544
2018-07-05T06:32:02.068Z,56736
2018-07-05T06:32:42.636Z,56480
2018-07-05T06:33:23.185Z,55840
2018-07-05T06:34:03.780Z,56288
2018-07-05T06:34:44.358Z,57632
2018-07-05T06:35:24.916Z,58688
2018-07-05T06:36:05.477Z,57792
2018-07-05T06:36:46.048Z,57728
2018-07-05T06:37:26.608Z,57760
2018-07-05T06:38:07.184Z,57632
2018-07-05T06:38:47.742Z,56640
2018-07-05T06:39:28.396Z,56256
2018-07-05T06:40:08.908Z,56352
2018-07-05T06:40:49.458Z,57568
2018-07-05T06:41:30.067Z,56512
2018-07-05T06:42:10.647Z,56832
2018-07-05T06:42:51.239Z,56800
2018-07-05T06:43:31.816Z,51968
2018-07-05T06:44:12.388Z,34464
2018-07-05T06:44:53.113Z,32288
2018-07-05T06:45:33.829Z,30304
2018-07-05T06:46:14.366Z,43040
2018-07-05T06:46:54.941Z,26752
2018-07-05T06:47:35.524Z,22528
2018-07-05T06:48:16.107Z,26272
2018-07-05T06:48:56.716Z,37280
2018-07-05T06:49:37.293Z,37472
2018-07-05T06:50:17.856Z,45056
2018-07-05T06:50:58.424Z,21376
2018-07-05T06:51:38.994Z,20224
2018-07-05T06:52:19.567Z,20160
2018-07-05T06:53:00.148Z,33248
2018-07-05T06:53:40.726Z,21696
2018-07-05T06:54:21.330Z,23712
2018-07-05T06:55:01.893Z,20416
2018-07-05T06:55:42.481Z,19904
2018-07-05T06:56:23.059Z,19840
2018-07-05T06:57:03.659Z,33088
2018-07-05T06:57:44.238Z,23104
2018-07-05T06:58:24.792Z,28736
2018-07-05T06:59:05.367Z,28832
2018-07-05T06:59:45.933Z,19264
2018-07-05T07:00:26.590Z,17312
2018-07-05T07:01:07.160Z,15540
2018-07-05T07:01:47.731Z,15188
2018-07-05T07:02:28.290Z,16928
2018-07-05T07:03:08.859Z,17376
2018-07-05T07:03:49.421Z,21056
2018-07-05T07:04:30.005Z,24544
2018-07-05T07:05:10.587Z,25248
2018-07-05T07:05:51.144Z,36160
2018-07-05T07:06:31.744Z,36224
2018-07-05T07:07:12.324Z,31840
2018-07-05T07:07:52.892Z,26816
2018-07-05T07:08:33.458Z,28320
2018-07-05T07:09:14.027Z,40320
2018-07-05T07:09:54.612Z,46208
2018-07-05T07:10:35.191Z,57216
2018-07-05T07:11:15.761Z,54752
2018-07-05T07:11:56.341Z,43008
2018-07-05T07:12:36.933Z,34496
2018-07-05T07:13:17.496Z,40832
2018-07-05T07:13:58.069Z,39168
2018-07-05T07:14:38.668Z,36544
2018-07-05T07:15:19.234Z,48576
2018-07-05T07:15:59.813Z,55104
2018-07-05T07:16:40.359Z,53600
2018-07-05T07:17:20.919Z,46336
2018-07-05T07:18:01.474Z,53408
2018-07-05T07:18:42.024Z,44384
2018-07-05T07:19:22.593Z,49760
2018-07-05T07:20:03.131Z,60128
2018-07-05T07:20:43.715Z,60992
2018-07-05T07:21:24.343Z,60544
2018-07-05T07:22:04.882Z,59616
2018-07-05T07:22:45.460Z,60192
2018-07-05T07:23:26.034Z,60960
2018-07-05T07:24:06.609Z,53440
2018-07-05T07:24:47.174Z,45024
2018-07-05T07:25:27.765Z,60160
2018-07-05T07:26:08.338Z,60736
2018-07-05T07:26:48.916Z,60896
2018-07-05T07:27:29.490Z,59872
2018-07-05T07:28:10.054Z,57984
2018-07-05T07:28:50.628Z,52416
2018-07-05T07:29:31.194Z,33920
2018-07-05T07:30:11.761Z,34624
2018-07-05T07:30:52.328Z,37024
2018-07-05T07:31:32.910Z,25600
2018-07-05T07:32:13.452Z,19616
2018-07-05T07:32:54.034Z,17696
2018-07-05T07:33:34.636Z,15804
2018-07-05T07:34:15.229Z,16832
2018-07-05T07:34:55.770Z,23584
2018-07-05T07:35:36.340Z,58912
2018-07-05T07:36:16.957Z,67712
2018-07-05T07:36:57.530Z,66304
2018-07-05T07:37:38.131Z,64544
2018-07-05T07:38:18.674Z,64128
2018-07-05T07:38:59.248Z,62432
2018-07-05T07:39:39.827Z,61568
2018-07-05T07:40:20.399Z,60352
2018-07-05T07:41:01.014Z,61792
2018-07-05T07:41:41.582Z,59136
2018-07-05T07:42:22.139Z,50528
2018-07-05T07:43:02.778Z,58880
2018-07-05T07:43:43.348Z,37728
2018-07-05T07:44:23.888Z,23360
2018-07-05T07:45:04.448Z,20960
2018-07-05T07:45:45.115Z,21600
2018-07-05T07:46:25.578Z,25824
2018-07-05T07:47:06.192Z,33632
2018-07-05T07:47:46.767Z,30208
2018-07-05T07:48:27.359Z,37792
2018-07-05T07:49:07.933Z,38784
2018-07-05T07:49:48.500Z,39712
2018-07-05T07:50:29.077Z,52224
2018-07-05T07:51:09.705Z,44896
2018-07-05T07:51:50.230Z,35680
2018-07-05T07:52:30.827Z,55072
2018-07-05T07:53:11.448Z,66240
2018-07-05T07:53:52.023Z,64512
2018-07-05T07:54:32.582Z,66816
2018-07-05T07:55:13.164Z,30304
2018-07-05T07:55:53.761Z,52512
2018-07-05T07:56:34.457Z,59296
2018-07-05T07:57:15.063Z,55264
2018-07-05T07:57:55.619Z,37312
2018-07-05T07:58:36.208Z,55744
2018-07-05T07:59:16.756Z,58816
2018-07-05T07:59:57.325Z,34208
2018-07-05T08:00:37.947Z,60928
2018-07-05T08:01:18.525Z,59904
2018-07-05T08:01:59.100Z,38560
2018-07-05T08:02:39.675Z,20448
2018-07-05T08:03:20.254Z,20384
2018-07-05T08:04:00.837Z,25952
2018-07-05T08:04:41.403Z,48032
2018-07-05T08:05:21.959Z,37440
2018-07-05T08:06:02.564Z,26368
2018-07-05T08:06:43.228Z,22336
2018-07-05T08:07:23.785Z,20800
2018-07-05T08:08:04.347Z,20928
2018-07-05T08:08:44.930Z,20608
2018-07-05T08:09:25.499Z,20160
2018-07-05T08:10:06.066Z,19936
2018-07-05T08:10:46.607Z,19872
2018-07-05T08:11:27.167Z,19904
2018-07-05T08:12:07.744Z,19904
2018-07-05T08:12:48.305Z,19520
2018-07-05T08:13:28.856Z,17888
2018-07-05T08:14:09.408Z,15420
2018-07-05T08:14:49.963Z,14764
2018-07-05T08:15:30.530Z,14112
2018-07-05T08:16:11.064Z,13184
2018-07-05T08:16:51.636Z,12472
2018-07-05T08:17:32.200Z,11948
2018-07-05T08:18:12.776Z,11560
2018-07-05T08:18:53.347Z,11068
2018-07-05T08:19:33.946Z,10684
2018-07-05T08:20:14.492Z,10472
2018-07-05T08:20:55.059Z,10432
2018-07-05T08:21:35.642Z,10692
2018-07-05T08:22:16.210Z,11716
2018-07-05T08:22:56.773Z,11768
2018-07-05T08:23:37.331Z,11980
2018-07-05T08:24:17.886Z,14200
2018-07-05T08:24:58.442Z,15180
2018-07-05T08:25:39.016Z,15744
2018-07-05T08:26:19.581Z,16704
2018-07-05T08:27:00.161Z,16704
2018-07-05T08:27:40.715Z,16864
2018-07-05T08:28:21.291Z,16992
2018-07-05T08:29:01.894Z,16960
2018-07-05T08:29:42.452Z,16832
2018-07-05T08:30:23.027Z,16736
2018-07-05T08:31:03.599Z,16704
2018-07-05T08:31:44.179Z,16704
2018-07-05T08:32:24.752Z,16736
2018-07-05T08:33:05.314Z,16704
2018-07-05T08:33:45.888Z,16576
2018-07-05T08:34:26.458Z,16008
2018-07-05T08:35:07.008Z,14460
2018-07-05T08:35:47.580Z,14308
2018-07-05T08:36:28.159Z,13652
2018-07-05T08:37:08.728Z,13520
2018-07-05T08:37:49.316Z,13536
2018-07-05T08:38:29.856Z,13280
2018-07-05T08:39:10.416Z,13516
2018-07-05T08:39:51.065Z,13412
2018-07-05T08:40:31.644Z,14108
2018-07-05T08:41:12.221Z,14348
2018-07-05T08:41:52.805Z,14624
2018-07-05T08:42:33.372Z,14320
2018-07-05T08:43:13.954Z,14860
2018-07-05T08:43:54.503Z,15156
2018-07-05T08:44:35.123Z,14508
2018-07-05T08:45:15.692Z,14028
2018-07-05T08:45:56.456Z,14512
2018-07-05T08:46:37.039Z,13684
2018-07-05T08:47:17.618Z,13964
2018-07-05T08:47:58.178Z,13700
2018-07-05T08:48:38.772Z,14160
2018-07-05T08:49:19.345Z,14208
2018-07-05T08:49:59.913Z,14244
2018-07-05T08:50:40.814Z,13776
2018-07-05T08:51:21.389Z,14024
2018-07-05T08:52:01.974Z,13784
2018-07-05T08:52:42.528Z,13456
2018-07-05T08:53:23.147Z,13160
2018-07-05T08:54:03.719Z,13008
2018-07-05T08:54:44.300Z,12792
2018-07-05T08:55:24.866Z,12648
2018-07-05T08:56:05.534Z,12584
2018-07-05T08:56:46.173Z,12580
2018-07-05T08:57:26.755Z,12616
2018-07-05T08:58:07.324Z,12468
2018-07-05T08:58:48.025Z,12292
2018-07-05T08:59:28.595Z,12092
2018-07-05T09:00:09.190Z,11892
2018-07-05T09:00:49.755Z,11748
2018-07-05T09:01:30.338Z,11708
2018-07-05T09:02:10.913Z,11704
2018-07-05T09:02:51.474Z,11660
2018-07-05T09:03:32.038Z,11624
2018-07-05T09:04:12.614Z,11648
2018-07-05T09:04:53.188Z,11624
2018-07-05T09:05:33.793Z,11604
2018-07-05T09:06:14.378Z,11464
2018-07-05T09:06:54.944Z,11248
2018-07-05T09:07:35.506Z,11036
2018-07-05T09:08:16.076Z,10868
2018-07-05T09:08:56.732Z,10800
2018-07-05T09:09:37.310Z,10696
2018-07-05T09:10:17.875Z,10484